BEL8BK EBBR-LDSP
Flight info
| Callsign | BEL8BK |
|---|---|
| Flight time | 1h 54m |
| Altitude | 37000 |
| Route | PITES M150 KRH DCT BATUB M738 OSDOV Z2 XEBIX L607 ELMEM N606 GIRIS DCT NIVAS DCT PEVAL DCT SAL |
| Aircraft | A320/M-SDE3FGHIRWY/LB1 |
Departure
| Time | 2026-05-05 09:51 |
|---|---|
| Airport | Brussels Airport (EBBR) |
Arrival
| Time | 2026-05-05 11:45 |
|---|---|
| Airport | Split Saint Jerome Airport (LDSP) |
| Time | Latitude | Longitude | Altitude | Speed | Heading |
|---|---|---|---|---|---|
| 2026-05-05 09:17 | 50.90516 | 4.48952 | 121 ft | 0 kts | 155° |
| 2026-05-05 09:40 | 50.90525 | 4.48945 | 116 ft | 4 kts | 155° |
| 2026-05-05 09:40 | 50.90549 | 4.48927 | 117 ft | 4 kts | 152° |
| 2026-05-05 09:40 | 50.90572 | 4.48905 | 118 ft | 4 kts | 139° |
| 2026-05-05 09:40 | 50.90586 | 4.48876 | 118 ft | 4 kts | 81° |
| 2026-05-05 09:41 | 50.90585 | 4.48867 | 118 ft | 0 kts | 65° |
| 2026-05-05 09:43 | 50.90589 | 4.48881 | 118 ft | 4 kts | 65° |
| 2026-05-05 09:43 | 50.90609 | 4.48952 | 121 ft | 10 kts | 65° |
| 2026-05-05 09:44 | 50.90633 | 4.49037 | 117 ft | 7 kts | 66° |
| 2026-05-05 09:44 | 50.90651 | 4.49097 | 119 ft | 4 kts | 64° |
| 2026-05-05 09:44 | 50.90655 | 4.49118 | 121 ft | 2 kts | 82° |
| 2026-05-05 09:44 | 50.90639 | 4.49139 | 118 ft | 5 kts | 150° |
| 2026-05-05 09:45 | 50.90606 | 4.49164 | 122 ft | 6 kts | 155° |
| 2026-05-05 09:45 | 50.90579 | 4.49183 | 121 ft | 6 kts | 156° |
| 2026-05-05 09:45 | 50.90521 | 4.49224 | 123 ft | 12 kts | 155° |
| 2026-05-05 09:45 | 50.90443 | 4.49282 | 120 ft | 10 kts | 155° |
| 2026-05-05 09:46 | 50.90396 | 4.49316 | 124 ft | 7 kts | 155° |
| 2026-05-05 09:46 | 50.90332 | 4.49379 | 125 ft | 14 kts | 131° |
| 2026-05-05 09:46 | 50.90266 | 4.49396 | 126 ft | 7 kts | 197° |
| 2026-05-05 09:46 | 50.90246 | 4.49388 | 127 ft | 3 kts | 194° |
| 2026-05-05 09:47 | 50.90179 | 4.49362 | 127 ft | 17 kts | 194° |
| 2026-05-05 09:47 | 50.90072 | 4.49321 | 128 ft | 13 kts | 191° |
| 2026-05-05 09:47 | 50.89984 | 4.49386 | 132 ft | 18 kts | 152° |
| 2026-05-05 09:47 | 50.89858 | 4.49349 | 139 ft | 18 kts | 197° |
| 2026-05-05 09:48 | 50.89734 | 4.49300 | 147 ft | 21 kts | 194° |
| 2026-05-05 09:48 | 50.89622 | 4.49248 | 154 ft | 12 kts | 209° |
| 2026-05-05 09:48 | 50.89566 | 4.49189 | 157 ft | 8 kts | 195° |
| 2026-05-05 09:48 | 50.89526 | 4.49173 | 159 ft | 8 kts | 194° |
| 2026-05-05 09:49 | 50.89446 | 4.49140 | 162 ft | 11 kts | 194° |
| 2026-05-05 09:49 | 50.89377 | 4.49129 | 165 ft | 11 kts | 162° |
| 2026-05-05 09:49 | 50.89375 | 4.49241 | 167 ft | 13 kts | 71° |
| 2026-05-05 09:49 | 50.89416 | 4.49405 | 168 ft | 15 kts | 56° |
| 2026-05-05 09:50 | 50.89505 | 4.49472 | 163 ft | 15 kts | 16° |
| 2026-05-05 09:50 | 50.89693 | 4.49550 | 151 ft | 57 kts | 15° |
| 2026-05-05 09:50 | 50.90301 | 4.49796 | 129 ft | 119 kts | 14° |
| 2026-05-05 09:50 | 50.91240 | 4.50193 | 257 ft | 154 kts | 15° |
| 2026-05-05 09:51 | 50.92216 | 4.50865 | 1000 ft | 151 kts | 31° |
| 2026-05-05 09:51 | 50.93067 | 4.51810 | 1763 ft | 151 kts | 47° |
| 2026-05-05 09:51 | 50.93454 | 4.53398 | 2228 ft | 166 kts | 87° |
| 2026-05-05 09:51 | 50.93058 | 4.55151 | 2765 ft | 179 kts | 125° |
| 2026-05-05 09:52 | 50.92182 | 4.56552 | 3406 ft | 178 kts | 129° |
| 2026-05-05 09:52 | 50.91302 | 4.58082 | 3716 ft | 198 kts | 127° |
| 2026-05-05 09:52 | 50.90342 | 4.59815 | 3991 ft | 223 kts | 126° |
| 2026-05-05 09:52 | 50.89214 | 4.61706 | 4352 ft | 250 kts | 141° |
| 2026-05-05 09:53 | 50.87523 | 4.62719 | 4901 ft | 271 kts | 168° |
| 2026-05-05 09:53 | 50.85652 | 4.63081 | 5750 ft | 277 kts | 173° |
| 2026-05-05 09:53 | 50.83691 | 4.63278 | 6655 ft | 280 kts | 175° |
| 2026-05-05 09:53 | 50.81773 | 4.63432 | 7486 ft | 283 kts | 176° |
| 2026-05-05 09:54 | 50.79791 | 4.63610 | 8346 ft | 286 kts | 175° |
| 2026-05-05 09:54 | 50.77781 | 4.63822 | 9155 ft | 292 kts | 174° |
| 2026-05-05 09:54 | 50.75744 | 4.64067 | 9962 ft | 295 kts | 172° |
| 2026-05-05 09:54 | 50.73757 | 4.64823 | 10683 ft | 297 kts | 155° |
| 2026-05-05 09:55 | 50.72001 | 4.66657 | 10953 ft | 314 kts | 130° |
| 2026-05-05 09:55 | 50.70704 | 4.69554 | 11142 ft | 334 kts | 116° |
| 2026-05-05 09:55 | 50.69778 | 4.72979 | 11575 ft | 345 kts | 106° |
| 2026-05-05 09:55 | 50.69111 | 4.76645 | 12233 ft | 350 kts | 105° |
| 2026-05-05 09:56 | 50.68403 | 4.80337 | 12960 ft | 354 kts | 106° |
| 2026-05-05 09:56 | 50.67670 | 4.84047 | 13703 ft | 356 kts | 106° |
| 2026-05-05 09:56 | 50.66903 | 4.87787 | 14313 ft | 361 kts | 110° |
| 2026-05-05 09:56 | 50.65768 | 4.91338 | 14940 ft | 365 kts | 122° |
| 2026-05-05 09:57 | 50.64197 | 4.94516 | 15539 ft | 370 kts | 133° |
| 2026-05-05 09:57 | 50.62360 | 4.97365 | 16229 ft | 371 kts | 135° |
| 2026-05-05 09:57 | 50.60513 | 5.00224 | 16868 ft | 374 kts | 135° |
| 2026-05-05 09:57 | 50.58653 | 5.03121 | 17480 ft | 377 kts | 135° |
| 2026-05-05 09:58 | 50.56788 | 5.06026 | 18190 ft | 378 kts | 135° |
| 2026-05-05 09:58 | 50.54912 | 5.08940 | 18749 ft | 381 kts | 135° |
| 2026-05-05 09:58 | 50.53014 | 5.11878 | 19253 ft | 386 kts | 136° |
| 2026-05-05 09:58 | 50.51083 | 5.14857 | 19722 ft | 391 kts | 136° |
| 2026-05-05 09:59 | 50.49132 | 5.17863 | 20249 ft | 394 kts | 136° |
| 2026-05-05 09:59 | 50.47163 | 5.20892 | 20758 ft | 398 kts | 136° |
| 2026-05-05 09:59 | 50.45180 | 5.23939 | 21269 ft | 401 kts | 136° |
| 2026-05-05 09:59 | 50.43178 | 5.27003 | 21772 ft | 404 kts | 136° |
| 2026-05-05 10:00 | 50.41157 | 5.30092 | 22272 ft | 407 kts | 136° |
| 2026-05-05 10:00 | 50.39124 | 5.33196 | 22758 ft | 409 kts | 137° |
| 2026-05-05 10:00 | 50.37079 | 5.36320 | 23216 ft | 412 kts | 137° |
| 2026-05-05 10:00 | 50.35024 | 5.39456 | 23636 ft | 415 kts | 137° |
| 2026-05-05 10:01 | 50.32949 | 5.42623 | 24038 ft | 417 kts | 137° |
| 2026-05-05 10:01 | 50.30866 | 5.45801 | 24432 ft | 419 kts | 137° |
| 2026-05-05 10:01 | 50.28780 | 5.48980 | 24822 ft | 420 kts | 137° |
| 2026-05-05 10:01 | 50.26680 | 5.52172 | 25226 ft | 421 kts | 137° |
| 2026-05-05 10:02 | 50.24578 | 5.55359 | 25584 ft | 422 kts | 138° |
| 2026-05-05 10:02 | 50.22460 | 5.58559 | 25945 ft | 424 kts | 139° |
| 2026-05-05 10:02 | 50.20338 | 5.61764 | 26296 ft | 426 kts | 139° |
| 2026-05-05 10:02 | 50.18209 | 5.64985 | 26634 ft | 428 kts | 139° |
| 2026-05-05 10:03 | 50.16070 | 5.68217 | 26969 ft | 430 kts | 139° |
| 2026-05-05 10:03 | 50.13913 | 5.71471 | 27279 ft | 431 kts | 139° |
| 2026-05-05 10:03 | 50.11747 | 5.74728 | 27597 ft | 433 kts | 139° |
| 2026-05-05 10:03 | 50.09572 | 5.77987 | 27888 ft | 435 kts | 139° |
| 2026-05-05 10:04 | 50.07388 | 5.81255 | 28177 ft | 437 kts | 139° |
| 2026-05-05 10:04 | 50.05195 | 5.84541 | 28464 ft | 439 kts | 139° |
| 2026-05-05 10:04 | 50.02991 | 5.87846 | 28785 ft | 439 kts | 139° |
| 2026-05-05 10:04 | 50.00821 | 5.91106 | 29085 ft | 440 kts | 140° |
| 2026-05-05 10:05 | 49.98620 | 5.94407 | 29322 ft | 442 kts | 140° |
| 2026-05-05 10:05 | 49.96364 | 5.97776 | 29512 ft | 445 kts | 140° |
| 2026-05-05 10:05 | 49.94131 | 6.01098 | 29837 ft | 444 kts | 140° |
| 2026-05-05 10:05 | 49.91930 | 6.04368 | 30134 ft | 444 kts | 140° |
| 2026-05-05 10:06 | 49.89703 | 6.07672 | 30424 ft | 443 kts | 140° |
| 2026-05-05 10:06 | 49.87509 | 6.11027 | 30712 ft | 444 kts | 136° |
| 2026-05-05 10:06 | 49.85585 | 6.14875 | 31006 ft | 449 kts | 127° |
| 2026-05-05 10:06 | 49.84046 | 6.19113 | 31321 ft | 451 kts | 122° |
| 2026-05-05 10:07 | 49.82613 | 6.23363 | 31621 ft | 450 kts | 122° |
| 2026-05-05 10:07 | 49.81164 | 6.27647 | 31927 ft | 449 kts | 123° |
| 2026-05-05 10:07 | 49.79707 | 6.31931 | 32229 ft | 448 kts | 123° |
| 2026-05-05 10:07 | 49.78254 | 6.36186 | 32536 ft | 447 kts | 123° |
| 2026-05-05 10:08 | 49.76803 | 6.40428 | 32807 ft | 446 kts | 123° |
| 2026-05-05 10:08 | 49.75348 | 6.44668 | 33121 ft | 446 kts | 124° |
| 2026-05-05 10:08 | 49.73898 | 6.48893 | 33427 ft | 445 kts | 124° |
| 2026-05-05 10:08 | 49.72450 | 6.53110 | 33739 ft | 444 kts | 124° |
| 2026-05-05 10:09 | 49.71005 | 6.57330 | 34020 ft | 443 kts | 124° |
| 2026-05-05 10:09 | 49.69567 | 6.61526 | 34265 ft | 443 kts | 124° |
| 2026-05-05 10:09 | 49.68126 | 6.65724 | 34523 ft | 442 kts | 124° |
| 2026-05-05 10:09 | 49.66686 | 6.69915 | 34753 ft | 442 kts | 123° |
| 2026-05-05 10:10 | 49.63786 | 6.78324 | 34854 ft | 444 kts | 124° |
| 2026-05-05 10:10 | 49.60873 | 6.86736 | 34866 ft | 445 kts | 124° |
| 2026-05-05 10:11 | 49.57955 | 6.95150 | 34868 ft | 445 kts | 124° |
| 2026-05-05 10:11 | 49.55032 | 7.03556 | 34876 ft | 445 kts | 124° |
| 2026-05-05 10:12 | 49.52095 | 7.11940 | 34877 ft | 444 kts | 124° |
| 2026-05-05 10:12 | 49.49160 | 7.20284 | 34876 ft | 443 kts | 124° |
| 2026-05-05 10:13 | 49.46229 | 7.28619 | 34887 ft | 443 kts | 124° |
| 2026-05-05 10:13 | 49.43299 | 7.36940 | 34884 ft | 443 kts | 124° |
| 2026-05-05 10:14 | 49.40361 | 7.45238 | 34883 ft | 442 kts | 124° |
| 2026-05-05 10:14 | 49.37420 | 7.53523 | 34874 ft | 442 kts | 124° |
| 2026-05-05 10:15 | 49.34471 | 7.61789 | 34851 ft | 442 kts | 125° |
| 2026-05-05 10:15 | 49.31505 | 7.70069 | 34852 ft | 443 kts | 125° |
| 2026-05-05 10:16 | 49.28535 | 7.78341 | 34855 ft | 444 kts | 125° |
| 2026-05-05 10:16 | 49.25555 | 7.86623 | 34857 ft | 444 kts | 125° |
| 2026-05-05 10:17 | 49.22576 | 7.94879 | 34881 ft | 443 kts | 125° |
| 2026-05-05 10:17 | 49.19598 | 8.03112 | 34863 ft | 442 kts | 125° |
| 2026-05-05 10:18 | 49.16609 | 8.11324 | 34865 ft | 442 kts | 125° |
| 2026-05-05 10:18 | 49.13617 | 8.19529 | 34866 ft | 442 kts | 125° |
| 2026-05-05 10:19 | 49.10628 | 8.27729 | 34871 ft | 442 kts | 125° |
| 2026-05-05 10:19 | 49.07631 | 8.35922 | 34869 ft | 442 kts | 125° |
| 2026-05-05 10:20 | 49.04615 | 8.44081 | 34869 ft | 442 kts | 126° |
| 2026-05-05 10:20 | 49.01585 | 8.52227 | 34868 ft | 442 kts | 126° |
| 2026-05-05 10:21 | 48.97881 | 8.59466 | 34872 ft | 427 kts | 143° |
| 2026-05-05 10:21 | 48.93156 | 8.64747 | 34876 ft | 420 kts | 151° |
| 2026-05-05 10:22 | 48.88311 | 8.69697 | 34873 ft | 419 kts | 151° |
| 2026-05-05 10:22 | 48.83483 | 8.74640 | 34866 ft | 418 kts | 151° |
| 2026-05-05 10:23 | 48.78644 | 8.79577 | 34838 ft | 420 kts | 151° |
| 2026-05-05 10:23 | 48.73787 | 8.84532 | 34837 ft | 422 kts | 150° |
| 2026-05-05 10:24 | 48.68918 | 8.89486 | 34844 ft | 422 kts | 151° |
| 2026-05-05 10:24 | 48.64044 | 8.94423 | 34850 ft | 422 kts | 151° |
| 2026-05-05 10:25 | 48.59158 | 8.99360 | 34853 ft | 422 kts | 151° |
| 2026-05-05 10:25 | 48.54280 | 9.04276 | 34848 ft | 421 kts | 151° |
| 2026-05-05 10:26 | 48.49399 | 9.09189 | 34851 ft | 421 kts | 151° |
| 2026-05-05 10:26 | 48.44521 | 9.14093 | 34835 ft | 422 kts | 151° |
| 2026-05-05 10:27 | 48.39625 | 9.19002 | 34840 ft | 423 kts | 151° |
| 2026-05-05 10:27 | 48.34723 | 9.23912 | 34844 ft | 423 kts | 151° |
| 2026-05-05 10:28 | 48.29847 | 9.28767 | 34850 ft | 424 kts | 151° |
| 2026-05-05 10:28 | 48.24903 | 9.33678 | 34853 ft | 423 kts | 151° |
| 2026-05-05 10:29 | 48.20029 | 9.38514 | 34862 ft | 423 kts | 150° |
| 2026-05-05 10:29 | 48.15123 | 9.43374 | 34844 ft | 422 kts | 151° |
| 2026-05-05 10:30 | 48.10214 | 9.48223 | 34842 ft | 423 kts | 151° |
| 2026-05-05 10:30 | 48.05292 | 9.53062 | 34847 ft | 424 kts | 151° |
| 2026-05-05 10:31 | 48.01199 | 9.57098 | 34851 ft | 424 kts | 150° |
| 2026-05-05 10:31 | 47.96369 | 9.62205 | 34860 ft | 426 kts | 148° |
| 2026-05-05 10:32 | 47.91579 | 9.67510 | 34864 ft | 426 kts | 148° |
| 2026-05-05 10:32 | 47.86837 | 9.72713 | 34871 ft | 426 kts | 148° |
| 2026-05-05 10:33 | 47.82034 | 9.77877 | 34849 ft | 426 kts | 148° |
| 2026-05-05 10:33 | 47.77209 | 9.83021 | 34856 ft | 426 kts | 148° |
| 2026-05-05 10:34 | 47.72395 | 9.88165 | 34863 ft | 426 kts | 148° |
| 2026-05-05 10:34 | 47.67583 | 9.93313 | 34861 ft | 427 kts | 148° |
| 2026-05-05 10:35 | 47.62763 | 9.98454 | 34857 ft | 427 kts | 148° |
| 2026-05-05 10:35 | 47.57938 | 10.03585 | 34862 ft | 427 kts | 148° |
| 2026-05-05 10:36 | 47.53103 | 10.08704 | 34838 ft | 427 kts | 148° |
| 2026-05-05 10:36 | 47.48298 | 10.13890 | 34841 ft | 431 kts | 143° |
| 2026-05-05 10:37 | 47.44467 | 10.20816 | 34845 ft | 444 kts | 122° |
| 2026-05-05 10:37 | 47.42497 | 10.29545 | 34845 ft | 455 kts | 105° |
| 2026-05-05 10:38 | 47.41155 | 10.38680 | 34849 ft | 452 kts | 113° |
| 2026-05-05 10:38 | 47.38297 | 10.46722 | 34833 ft | 439 kts | 133° |
| 2026-05-05 10:39 | 47.33888 | 10.52719 | 34834 ft | 428 kts | 152° |
| 2026-05-05 10:39 | 47.28700 | 10.56945 | 34849 ft | 426 kts | 156° |
| 2026-05-05 10:40 | 47.23485 | 10.61084 | 34853 ft | 426 kts | 155° |
| 2026-05-05 10:40 | 47.18259 | 10.65223 | 34872 ft | 427 kts | 156° |
| 2026-05-05 10:41 | 47.12808 | 10.68499 | 34889 ft | 423 kts | 163° |
| 2026-05-05 10:41 | 47.07294 | 10.71521 | 34889 ft | 424 kts | 163° |
| 2026-05-05 10:42 | 46.98999 | 10.76079 | 34893 ft | 426 kts | 162° |
| 2026-05-05 10:43 | 46.93459 | 10.79219 | 34931 ft | 427 kts | 162° |
| 2026-05-05 10:43 | 46.87917 | 10.82381 | 34927 ft | 428 kts | 162° |
| 2026-05-05 10:44 | 46.82359 | 10.85516 | 34967 ft | 428 kts | 162° |
| 2026-05-05 10:44 | 46.77047 | 10.89503 | 34983 ft | 436 kts | 147° |
| 2026-05-05 10:45 | 46.72702 | 10.95775 | 34975 ft | 443 kts | 135° |
| 2026-05-05 10:45 | 46.68618 | 11.02490 | 34979 ft | 443 kts | 135° |
| 2026-05-05 10:46 | 46.64504 | 11.09195 | 34977 ft | 444 kts | 136° |
| 2026-05-05 10:46 | 46.60384 | 11.15897 | 34977 ft | 445 kts | 136° |
| 2026-05-05 10:47 | 46.56280 | 11.22561 | 34977 ft | 445 kts | 136° |
| 2026-05-05 10:47 | 46.52142 | 11.29268 | 34987 ft | 445 kts | 136° |
| 2026-05-05 10:48 | 46.47998 | 11.35969 | 34973 ft | 445 kts | 136° |
| 2026-05-05 10:48 | 46.43860 | 11.42665 | 34976 ft | 446 kts | 136° |
| 2026-05-05 10:49 | 46.39712 | 11.49342 | 34966 ft | 446 kts | 136° |
| 2026-05-05 10:49 | 46.35542 | 11.56023 | 34969 ft | 448 kts | 136° |
| 2026-05-05 10:50 | 46.31358 | 11.62735 | 34967 ft | 450 kts | 136° |
| 2026-05-05 10:50 | 46.27151 | 11.69461 | 34969 ft | 451 kts | 136° |
| 2026-05-05 10:51 | 46.22953 | 11.76156 | 34979 ft | 452 kts | 136° |
| 2026-05-05 10:51 | 46.18727 | 11.82885 | 34987 ft | 452 kts | 136° |
| 2026-05-05 10:52 | 46.14487 | 11.89623 | 34989 ft | 453 kts | 136° |
| 2026-05-05 10:52 | 46.10233 | 11.96347 | 35003 ft | 454 kts | 136° |
| 2026-05-05 10:53 | 46.05967 | 12.03066 | 34994 ft | 453 kts | 136° |
| 2026-05-05 10:53 | 46.01736 | 12.09734 | 35002 ft | 454 kts | 136° |
| 2026-05-05 10:54 | 45.97469 | 12.16443 | 35022 ft | 454 kts | 136° |
| 2026-05-05 10:54 | 45.93200 | 12.23136 | 35033 ft | 454 kts | 136° |
| 2026-05-05 10:55 | 45.88928 | 12.29817 | 35031 ft | 454 kts | 136° |
| 2026-05-05 10:55 | 45.84767 | 12.36674 | 35028 ft | 455 kts | 134° |
| 2026-05-05 10:56 | 45.80680 | 12.43617 | 35030 ft | 455 kts | 134° |
| 2026-05-05 10:56 | 45.76574 | 12.50512 | 35034 ft | 455 kts | 134° |
| 2026-05-05 10:57 | 45.72435 | 12.57363 | 35035 ft | 455 kts | 135° |
| 2026-05-05 10:57 | 45.68302 | 12.64150 | 35018 ft | 455 kts | 134° |
| 2026-05-05 10:58 | 45.64149 | 12.70973 | 35023 ft | 455 kts | 134° |
| 2026-05-05 10:58 | 45.59996 | 12.77806 | 35022 ft | 455 kts | 134° |
| 2026-05-05 10:59 | 45.55838 | 12.84622 | 35024 ft | 455 kts | 134° |
| 2026-05-05 10:59 | 45.51663 | 12.91452 | 35327 ft | 456 kts | 134° |
| 2026-05-05 10:59 | 45.49600 | 12.94824 | 35529 ft | 456 kts | 134° |
| 2026-05-05 11:00 | 45.47511 | 12.98228 | 35728 ft | 456 kts | 134° |
| 2026-05-05 11:00 | 45.45416 | 13.01634 | 35986 ft | 456 kts | 134° |
| 2026-05-05 11:00 | 45.43319 | 13.05032 | 36164 ft | 457 kts | 134° |
| 2026-05-05 11:00 | 45.41215 | 13.08435 | 36335 ft | 457 kts | 134° |
| 2026-05-05 11:01 | 45.39112 | 13.11839 | 36460 ft | 459 kts | 134° |
| 2026-05-05 11:01 | 45.37000 | 13.15262 | 36628 ft | 459 kts | 134° |
| 2026-05-05 11:01 | 45.34893 | 13.18677 | 36810 ft | 460 kts | 134° |
| 2026-05-05 11:01 | 45.32777 | 13.22102 | 36996 ft | 460 kts | 134° |
| 2026-05-05 11:02 | 45.30649 | 13.25512 | 37043 ft | 460 kts | 135° |
| 2026-05-05 11:02 | 45.26273 | 13.32037 | 37046 ft | 458 kts | 138° |
| 2026-05-05 11:03 | 45.21752 | 13.38410 | 37050 ft | 458 kts | 138° |
| 2026-05-05 11:03 | 45.17226 | 13.44805 | 37040 ft | 458 kts | 138° |
| 2026-05-05 11:04 | 45.12731 | 13.51265 | 37048 ft | 461 kts | 137° |
| 2026-05-05 11:04 | 45.08232 | 13.57737 | 37048 ft | 461 kts | 137° |
| 2026-05-05 11:05 | 45.03710 | 13.64197 | 37055 ft | 461 kts | 137° |
| 2026-05-05 11:05 | 44.99191 | 13.70645 | 37063 ft | 462 kts | 137° |
| 2026-05-05 11:06 | 44.94706 | 13.77055 | 37060 ft | 462 kts | 137° |
| 2026-05-05 11:06 | 44.90170 | 13.83501 | 37044 ft | 462 kts | 138° |
| 2026-05-05 11:07 | 44.85628 | 13.89910 | 37051 ft | 462 kts | 138° |
| 2026-05-05 11:07 | 44.81087 | 13.96312 | 37059 ft | 462 kts | 138° |
| 2026-05-05 11:08 | 44.76552 | 14.02718 | 37065 ft | 461 kts | 138° |
| 2026-05-05 11:08 | 44.72014 | 14.09109 | 37074 ft | 461 kts | 138° |
| 2026-05-05 11:09 | 44.67466 | 14.15491 | 37059 ft | 461 kts | 138° |
| 2026-05-05 11:09 | 44.62933 | 14.21830 | 37061 ft | 461 kts | 138° |
| 2026-05-05 11:10 | 44.58384 | 14.28182 | 37065 ft | 462 kts | 138° |
| 2026-05-05 11:10 | 44.53823 | 14.34537 | 37061 ft | 462 kts | 138° |
| 2026-05-05 11:11 | 44.49261 | 14.40873 | 36913 ft | 462 kts | 138° |
| 2026-05-05 11:11 | 44.46975 | 14.44037 | 36660 ft | 461 kts | 138° |
| 2026-05-05 11:11 | 44.45459 | 14.46136 | 36457 ft | 462 kts | 138° |
| 2026-05-05 11:11 | 44.43169 | 14.49308 | 36199 ft | 463 kts | 138° |
| 2026-05-05 11:12 | 44.40880 | 14.52474 | 35949 ft | 463 kts | 138° |
| 2026-05-05 11:12 | 44.38590 | 14.55640 | 35697 ft | 463 kts | 138° |
| 2026-05-05 11:12 | 44.36295 | 14.58809 | 35429 ft | 463 kts | 138° |
| 2026-05-05 11:12 | 44.33992 | 14.61985 | 34549 ft | 467 kts | 138° |
| 2026-05-05 11:13 | 44.31667 | 14.65190 | 33616 ft | 469 kts | 138° |
| 2026-05-05 11:13 | 44.29340 | 14.68393 | 32527 ft | 471 kts | 138° |
| 2026-05-05 11:13 | 44.26996 | 14.71610 | 31473 ft | 472 kts | 137° |
| 2026-05-05 11:13 | 44.24649 | 14.74822 | 30417 ft | 472 kts | 137° |
| 2026-05-05 11:14 | 44.22302 | 14.78034 | 29155 ft | 473 kts | 137° |
| 2026-05-05 11:14 | 44.19990 | 14.81197 | 28269 ft | 468 kts | 137° |
| 2026-05-05 11:14 | 44.17689 | 14.84346 | 27601 ft | 459 kts | 137° |
| 2026-05-05 11:14 | 44.15424 | 14.87442 | 26867 ft | 453 kts | 138° |
| 2026-05-05 11:15 | 44.13176 | 14.90509 | 26138 ft | 449 kts | 138° |
| 2026-05-05 11:15 | 44.10954 | 14.93536 | 25429 ft | 444 kts | 138° |
| 2026-05-05 11:15 | 44.08757 | 14.96533 | 24725 ft | 441 kts | 138° |
| 2026-05-05 11:15 | 44.06559 | 14.99521 | 24041 ft | 438 kts | 139° |
| 2026-05-05 11:16 | 44.04412 | 15.02434 | 23324 ft | 436 kts | 139° |
| 2026-05-05 11:16 | 44.02246 | 15.05368 | 22646 ft | 431 kts | 139° |
| 2026-05-05 11:16 | 44.00106 | 15.08264 | 22028 ft | 426 kts | 139° |
| 2026-05-05 11:16 | 43.97997 | 15.11119 | 21430 ft | 421 kts | 139° |
| 2026-05-05 11:17 | 43.95908 | 15.13944 | 20849 ft | 417 kts | 139° |
| 2026-05-05 11:17 | 43.93843 | 15.16735 | 20323 ft | 412 kts | 139° |
| 2026-05-05 11:17 | 43.91759 | 15.19428 | 19799 ft | 407 kts | 141° |
| 2026-05-05 11:17 | 43.89639 | 15.22011 | 19298 ft | 403 kts | 143° |
| 2026-05-05 11:18 | 43.87514 | 15.24512 | 18793 ft | 400 kts | 143° |
| 2026-05-05 11:18 | 43.85395 | 15.26980 | 18290 ft | 396 kts | 143° |
| 2026-05-05 11:18 | 43.83297 | 15.29430 | 17757 ft | 392 kts | 142° |
| 2026-05-05 11:18 | 43.81225 | 15.31871 | 17259 ft | 389 kts | 142° |
| 2026-05-05 11:19 | 43.79181 | 15.34295 | 16760 ft | 385 kts | 142° |
| 2026-05-05 11:19 | 43.77156 | 15.36706 | 16245 ft | 383 kts | 142° |
| 2026-05-05 11:19 | 43.75148 | 15.39100 | 15731 ft | 380 kts | 142° |
| 2026-05-05 11:19 | 43.73150 | 15.41480 | 15199 ft | 378 kts | 142° |
| 2026-05-05 11:20 | 43.71159 | 15.43851 | 14667 ft | 377 kts | 142° |
| 2026-05-05 11:20 | 43.69169 | 15.46223 | 14117 ft | 375 kts | 142° |
| 2026-05-05 11:20 | 43.67182 | 15.48551 | 13595 ft | 371 kts | 146° |
| 2026-05-05 11:20 | 43.65030 | 15.50231 | 13489 ft | 350 kts | 160° |
| 2026-05-05 11:21 | 43.62824 | 15.51544 | 13412 ft | 344 kts | 160° |
| 2026-05-05 11:21 | 43.60618 | 15.52843 | 13328 ft | 345 kts | 160° |
| 2026-05-05 11:21 | 43.58411 | 15.54135 | 13256 ft | 344 kts | 161° |
| 2026-05-05 11:21 | 43.56207 | 15.55420 | 13182 ft | 343 kts | 161° |
| 2026-05-05 11:22 | 43.54011 | 15.56698 | 13085 ft | 343 kts | 161° |
| 2026-05-05 11:22 | 43.51814 | 15.57975 | 13003 ft | 342 kts | 161° |
| 2026-05-05 11:22 | 43.49619 | 15.59246 | 12927 ft | 342 kts | 161° |
| 2026-05-05 11:22 | 43.47431 | 15.60511 | 12850 ft | 341 kts | 161° |
| 2026-05-05 11:23 | 43.45237 | 15.61780 | 12567 ft | 341 kts | 161° |
| 2026-05-05 11:23 | 43.43056 | 15.63041 | 12049 ft | 339 kts | 161° |
| 2026-05-05 11:23 | 43.40893 | 15.64291 | 11512 ft | 337 kts | 160° |
| 2026-05-05 11:23 | 43.38737 | 15.65540 | 10971 ft | 335 kts | 160° |
| 2026-05-05 11:24 | 43.36618 | 15.66770 | 10750 ft | 323 kts | 160° |
| 2026-05-05 11:24 | 43.34591 | 15.67948 | 10624 ft | 309 kts | 160° |
| 2026-05-05 11:24 | 43.32681 | 15.69067 | 10504 ft | 296 kts | 158° |
| 2026-05-05 11:24 | 43.30937 | 15.70505 | 10347 ft | 290 kts | 146° |
| 2026-05-05 11:25 | 43.29453 | 15.72350 | 10181 ft | 286 kts | 138° |
| 2026-05-05 11:25 | 43.28031 | 15.74275 | 10103 ft | 286 kts | 139° |
| 2026-05-05 11:25 | 43.26617 | 15.76180 | 9955 ft | 285 kts | 139° |
| 2026-05-05 11:25 | 43.25268 | 15.78233 | 9362 ft | 294 kts | 123° |
| 2026-05-05 11:26 | 43.24653 | 15.80862 | 8927 ft | 293 kts | 95° |
| 2026-05-05 11:26 | 43.25070 | 15.83574 | 8236 ft | 295 kts | 64° |
| 2026-05-05 11:26 | 43.26361 | 15.85770 | 7487 ft | 297 kts | 47° |
| 2026-05-05 11:26 | 43.27803 | 15.87775 | 6897 ft | 292 kts | 46° |
| 2026-05-05 11:27 | 43.29227 | 15.89734 | 6249 ft | 289 kts | 47° |
| 2026-05-05 11:27 | 43.30640 | 15.91679 | 5699 ft | 285 kts | 48° |
| 2026-05-05 11:27 | 43.32007 | 15.93567 | 5403 ft | 267 kts | 48° |
| 2026-05-05 11:27 | 43.33265 | 15.95309 | 5070 ft | 254 kts | 49° |
| 2026-05-05 11:28 | 43.34484 | 15.97011 | 4914 ft | 248 kts | 49° |
| 2026-05-05 11:28 | 43.35656 | 15.98653 | 4819 ft | 235 kts | 49° |
| 2026-05-05 11:28 | 43.36788 | 16.00241 | 4700 ft | 230 kts | 50° |
| 2026-05-05 11:28 | 43.37904 | 16.01811 | 4617 ft | 229 kts | 50° |
| 2026-05-05 11:29 | 43.38999 | 16.03355 | 4512 ft | 220 kts | 52° |
| 2026-05-05 11:29 | 43.39969 | 16.04913 | 4391 ft | 210 kts | 56° |
| 2026-05-05 11:29 | 43.40866 | 16.06489 | 4110 ft | 207 kts | 57° |
| 2026-05-05 11:29 | 43.41740 | 16.08046 | 3791 ft | 205 kts | 58° |
| 2026-05-05 11:30 | 43.42603 | 16.09585 | 3505 ft | 201 kts | 58° |
| 2026-05-05 11:30 | 43.43453 | 16.11103 | 3233 ft | 198 kts | 58° |
| 2026-05-05 11:30 | 43.44234 | 16.12643 | 3060 ft | 193 kts | 71° |
| 2026-05-05 11:30 | 43.44512 | 16.14381 | 3020 ft | 182 kts | 99° |
| 2026-05-05 11:31 | 43.44158 | 16.15998 | 3037 ft | 174 kts | 125° |
| 2026-05-05 11:31 | 43.43545 | 16.17412 | 3027 ft | 174 kts | 126° |
| 2026-05-05 11:31 | 43.42923 | 16.18846 | 3034 ft | 179 kts | 126° |
| 2026-05-05 11:31 | 43.42233 | 16.20417 | 3027 ft | 201 kts | 126° |
| 2026-05-05 11:32 | 43.41505 | 16.22082 | 3031 ft | 205 kts | 126° |
| 2026-05-05 11:32 | 43.40764 | 16.23777 | 3037 ft | 208 kts | 126° |
| 2026-05-05 11:32 | 43.40045 | 16.25491 | 3033 ft | 208 kts | 118° |
| 2026-05-05 11:32 | 43.39879 | 16.27480 | 3038 ft | 219 kts | 82° |
| 2026-05-05 11:33 | 43.40663 | 16.29318 | 3033 ft | 232 kts | 47° |
| 2026-05-05 11:33 | 43.41876 | 16.30806 | 3036 ft | 234 kts | 45° |
| 2026-05-05 11:33 | 43.43094 | 16.32263 | 3030 ft | 227 kts | 45° |
| 2026-05-05 11:33 | 43.44251 | 16.33641 | 3026 ft | 214 kts | 46° |
| 2026-05-05 11:34 | 43.45356 | 16.34966 | 3034 ft | 208 kts | 46° |
| 2026-05-05 11:34 | 43.46435 | 16.36270 | 3057 ft | 205 kts | 45° |
| 2026-05-05 11:34 | 43.47490 | 16.37547 | 3026 ft | 193 kts | 46° |
| 2026-05-05 11:34 | 43.48492 | 16.38762 | 2991 ft | 192 kts | 45° |
| 2026-05-05 11:35 | 43.49601 | 16.39763 | 2584 ft | 197 kts | 21° |
| 2026-05-05 11:35 | 43.50953 | 16.39998 | 2181 ft | 198 kts | 3° |
| 2026-05-05 11:35 | 43.52323 | 16.39855 | 1851 ft | 194 kts | 348° |
| 2026-05-05 11:35 | 43.53458 | 16.39137 | 1795 ft | 170 kts | 319° |
| 2026-05-05 11:36 | 43.54265 | 16.38036 | 1831 ft | 155 kts | 307° |
| 2026-05-05 11:36 | 43.54921 | 16.36846 | 1822 ft | 156 kts | 301° |
| 2026-05-05 11:36 | 43.55417 | 16.35567 | 1738 ft | 149 kts | 284° |
| 2026-05-05 11:36 | 43.55658 | 16.34153 | 1359 ft | 157 kts | 274° |
| 2026-05-05 11:37 | 43.55549 | 16.32659 | 845 ft | 159 kts | 238° |
| 2026-05-05 11:37 | 43.54831 | 16.31499 | 313 ft | 161 kts | 230° |
| 2026-05-05 11:37 | 43.54187 | 16.30310 | 94 ft | 139 kts | 228° |
| 2026-05-05 11:37 | 43.53580 | 16.29284 | 654 ft | 142 kts | 226° |
| 2026-05-05 11:38 | 43.52950 | 16.28212 | 1600 ft | 146 kts | 224° |
| 2026-05-05 11:38 | 43.52333 | 16.27090 | 2339 ft | 157 kts | 227° |
| 2026-05-05 11:38 | 43.51586 | 16.25904 | 2732 ft | 168 kts | 209° |
| 2026-05-05 11:38 | 43.50466 | 16.25448 | 3050 ft | 173 kts | 175° |
| 2026-05-05 11:39 | 43.49401 | 16.26103 | 3044 ft | 171 kts | 138° |
| 2026-05-05 11:39 | 43.48606 | 16.27344 | 3038 ft | 173 kts | 135° |
| 2026-05-05 11:39 | 43.47818 | 16.28593 | 3036 ft | 172 kts | 135° |
| 2026-05-05 11:39 | 43.47032 | 16.29841 | 3036 ft | 173 kts | 135° |
| 2026-05-05 11:40 | 43.46240 | 16.31097 | 3037 ft | 173 kts | 135° |
| 2026-05-05 11:40 | 43.45470 | 16.32382 | 3032 ft | 175 kts | 127° |
| 2026-05-05 11:40 | 43.45164 | 16.33966 | 2934 ft | 174 kts | 93° |
| 2026-05-05 11:40 | 43.45593 | 16.35526 | 2700 ft | 182 kts | 55° |
| 2026-05-05 11:41 | 43.46582 | 16.36641 | 2438 ft | 184 kts | 42° |
| 2026-05-05 11:41 | 43.47582 | 16.37726 | 2149 ft | 184 kts | 42° |
| 2026-05-05 11:41 | 43.48574 | 16.38838 | 1959 ft | 183 kts | 43° |
| 2026-05-05 11:41 | 43.49630 | 16.39813 | 1871 ft | 189 kts | 32° |
| 2026-05-05 11:42 | 43.50933 | 16.40531 | 1723 ft | 200 kts | 19° |
| 2026-05-05 11:42 | 43.52210 | 16.40983 | 1586 ft | 179 kts | 7° |
| 2026-05-05 11:42 | 43.53407 | 16.40901 | 1370 ft | 168 kts | 342° |
| 2026-05-05 11:42 | 43.54346 | 16.40105 | 1308 ft | 155 kts | 310° |
| 2026-05-05 11:43 | 43.54953 | 16.38930 | 1232 ft | 148 kts | 296° |
| 2026-05-05 11:43 | 43.55360 | 16.37645 | 1245 ft | 144 kts | 288° |
| 2026-05-05 11:43 | 43.55656 | 16.36326 | 1120 ft | 144 kts | 283° |
| 2026-05-05 11:43 | 43.55868 | 16.34990 | 919 ft | 141 kts | 274° |
| 2026-05-05 11:44 | 43.55808 | 16.33678 | 759 ft | 140 kts | 249° |
| 2026-05-05 11:44 | 43.55367 | 16.32506 | 510 ft | 134 kts | 233° |
| 2026-05-05 11:44 | 43.54815 | 16.31471 | 226 ft | 134 kts | 231° |
| 2026-05-05 11:44 | 43.54253 | 16.30470 | 59 ft | 125 kts | 230° |
| 2026-05-05 11:45 | 43.53833 | 16.29700 | 73 ft | 75 kts | 233° |
| 2026-05-05 11:45 | 43.53625 | 16.29314 | 81 ft | 29 kts | 232° |
| 2026-05-05 11:45 | 43.53502 | 16.29100 | 83 ft | 25 kts | 230° |
| 2026-05-05 11:45 | 43.53450 | 16.28972 | 80 ft | 6 kts | 310° |
| 2026-05-05 11:46 | 43.53489 | 16.29041 | 80 ft | 16 kts | 47° |
| 2026-05-05 11:46 | 43.53579 | 16.29230 | 80 ft | 26 kts | 50° |
| 2026-05-05 11:46 | 43.53688 | 16.29433 | 81 ft | 28 kts | 66° |
| 2026-05-05 11:46 | 43.53691 | 16.29597 | 71 ft | 13 kts | 113° |
| 2026-05-05 11:47 | 43.53694 | 16.29690 | 60 ft | 6 kts | 14° |
| 2026-05-05 11:47 | 43.53720 | 16.29721 | 63 ft | 5 kts | 53° |
| 2026-05-05 11:47 | 43.53738 | 16.29754 | 66 ft | 4 kts | 54° |
| 2026-05-05 11:47 | 43.53756 | 16.29788 | 68 ft | 6 kts | 52° |
| 2026-05-05 11:48 | 43.53806 | 16.29877 | 64 ft | 6 kts | 53° |
| 2026-05-05 11:48 | 43.53830 | 16.29920 | 65 ft | 5 kts | 53° |
| 2026-05-05 11:48 | 43.53852 | 16.29970 | 64 ft | 7 kts | 74° |
| 2026-05-05 11:49 | 43.53839 | 16.30028 | 65 ft | 6 kts | 114° |
| 2026-05-05 11:49 | 43.53831 | 16.30051 | 62 ft | 1 kts | 115° |
| 2026-05-05 11:49 | 43.53830 | 16.30056 | 63 ft | 0 kts | 115° |
| 2026-05-05 11:49 | 43.53828 | 16.30062 | 65 ft | 1 kts | 115° |
| 2026-05-05 11:50 | 43.53827 | 16.30064 | 65 ft | 0 kts | 114° |